createdAt,value
2019-03-01T00:02:11.217Z,14.80
2019-03-01T00:05:09.456Z,20.20
2019-03-01T00:08:11.633Z,18.50
2019-03-01T00:10:57.238Z,24.33
2019-03-01T00:13:52.296Z,16.63
2019-03-01T00:17:06.725Z,17.57
2019-03-01T00:20:02.772Z,15.23
2019-03-01T00:22:45.287Z,18.13
2019-03-01T00:25:24.851Z,15.67
2019-03-01T00:28:43.306Z,13.93
2019-03-01T00:31:53.166Z,16.33
2019-03-01T00:34:59.118Z,21.40
2019-03-01T00:38:09.590Z,19.07
2019-03-01T00:41:18.448Z,13.07
2019-03-01T00:43:58.232Z,12.73
2019-03-01T00:46:27.843Z,14.33
2019-03-01T00:48:57.436Z,14.23
2019-03-01T00:51:27.046Z,19.67
2019-03-01T00:53:56.636Z,14.47
2019-03-01T00:56:26.260Z,16.20
2019-03-01T00:58:56.843Z,23.30
2019-03-01T01:01:26.457Z,17.77
2019-03-01T01:03:56.120Z,15.63
2019-03-01T01:06:25.715Z,19.77
2019-03-01T01:08:55.402Z,19.93
2019-03-01T01:11:25.101Z,18.07
2019-03-01T01:13:54.687Z,17.53
2019-03-01T01:16:24.307Z,18.70
2019-03-01T01:18:53.929Z,15.43
2019-03-01T01:21:23.545Z,14.47
2019-03-01T01:23:53.155Z,14.17
2019-03-01T01:26:22.838Z,17.63
2019-03-01T01:28:52.462Z,16.17
2019-03-01T01:31:22.044Z,19.47
2019-03-01T01:33:51.660Z,17.43
2019-03-01T01:36:21.342Z,13.73
2019-03-01T01:38:50.932Z,15.27
2019-03-01T01:41:20.550Z,16.93
2019-03-01T01:43:50.139Z,16.30
2019-03-01T01:46:19.755Z,15.83
2019-03-01T01:48:49.341Z,12.83
2019-03-01T01:51:18.967Z,21.20
2019-03-01T01:53:48.555Z,18.30
2019-03-01T01:56:18.148Z,17.17
2019-03-01T01:58:47.773Z,15.17
2019-03-01T02:01:17.435Z,21.00
2019-03-01T02:03:47.022Z,26.83
2019-03-01T02:06:16.643Z,26.40
2019-03-01T02:08:46.244Z,25.67
2019-03-01T02:11:15.942Z,23.70
2019-03-01T02:13:45.571Z,16.73
2019-03-01T02:16:15.308Z,12.00
2019-03-01T02:18:44.903Z,16.37
2019-03-01T02:21:14.591Z,17.93
2019-03-01T02:23:44.184Z,15.03
2019-03-01T02:26:14.678Z,20.43
2019-03-01T02:28:44.271Z,18.63
2019-03-01T02:31:14.212Z,15.60
2019-03-01T02:33:43.752Z,18.60
2019-03-01T02:36:13.366Z,17.70
2019-03-01T02:38:42.986Z,14.10
2019-03-01T02:41:12.594Z,12.83
2019-03-01T02:43:42.223Z,14.97
2019-03-01T02:46:11.809Z,15.43
2019-03-01T02:48:41.420Z,16.37
2019-03-01T02:51:11.013Z,19.27
2019-03-01T02:53:40.634Z,19.00
2019-03-01T02:56:10.228Z,19.77
2019-03-01T02:58:39.854Z,20.27
2019-03-01T03:01:09.471Z,16.93
2019-03-01T03:03:39.058Z,22.77
2019-03-01T03:06:12.780Z,19.63
2019-03-01T03:08:42.539Z,22.20
2019-03-01T03:11:12.553Z,24.90
2019-03-01T03:13:42.141Z,15.13
2019-03-01T03:16:11.925Z,24.60
2019-03-01T03:18:41.546Z,22.23
2019-03-01T03:21:11.171Z,18.90
2019-03-01T03:23:40.770Z,19.40
2019-03-01T03:26:10.387Z,20.97
2019-03-01T03:28:39.976Z,19.33
2019-03-01T03:31:09.569Z,16.43
2019-03-01T03:33:39.188Z,16.17
2019-03-01T03:36:08.809Z,19.50
2019-03-01T03:38:38.515Z,17.43
2019-03-01T03:41:08.229Z,14.37
2019-03-01T03:43:37.850Z,18.93
2019-03-01T03:46:07.450Z,19.93
2019-03-01T03:48:37.060Z,18.37
2019-03-01T03:51:06.658Z,21.67
2019-03-01T03:53:36.273Z,17.37
2019-03-01T03:56:06.021Z,16.73
2019-03-01T03:58:35.678Z,17.33
2019-03-01T04:01:05.494Z,18.33
2019-03-01T04:03:35.180Z,15.83
2019-03-01T04:06:05.074Z,12.77
2019-03-01T04:08:35.225Z,19.30
2019-03-01T04:11:04.884Z,23.90
2019-03-01T04:13:34.498Z,25.30
2019-03-01T04:16:04.160Z,22.30
2019-03-01T04:18:33.844Z,14.73
2019-03-01T04:21:03.440Z,18.13
2019-03-01T04:23:33.126Z,17.33
2019-03-01T04:26:02.744Z,26.57
2019-03-01T04:28:32.332Z,29.20
2019-03-01T04:31:03.527Z,23.93
2019-03-01T04:33:33.118Z,20.50
2019-03-01T04:36:02.725Z,17.73
2019-03-01T04:38:32.355Z,16.50
2019-03-01T04:41:01.943Z,15.53
2019-03-01T04:43:31.599Z,15.03
2019-03-01T04:46:01.217Z,17.00
2019-03-01T04:48:30.806Z,16.73
2019-03-01T04:51:00.425Z,15.57
2019-03-01T04:53:30.018Z,21.83
2019-03-01T04:55:59.631Z,17.63
2019-03-01T04:58:29.245Z,15.80
2019-03-01T05:00:58.856Z,15.87
2019-03-01T05:03:28.489Z,24.43
2019-03-01T05:05:58.073Z,17.97
2019-03-01T05:08:27.688Z,20.80
2019-03-01T05:10:57.274Z,23.43
2019-03-01T05:13:26.890Z,19.13
2019-03-01T05:15:56.506Z,7.70
2019-03-01T05:18:26.105Z,9.47
2019-03-01T05:20:55.791Z,6.50
2019-03-01T05:23:25.411Z,10.73
2019-03-01T05:25:55.283Z,13.33
2019-03-01T05:28:24.907Z,6.87
2019-03-01T05:30:54.526Z,4.57
2019-03-01T05:33:24.149Z,6.43
2019-03-01T05:35:53.744Z,8.10
2019-03-01T05:38:23.364Z,5.33
2019-03-01T05:40:52.960Z,13.37
2019-03-01T05:43:22.579Z,12.10
2019-03-01T05:45:52.171Z,7.13
2019-03-01T05:48:21.793Z,8.97
2019-03-01T05:50:51.415Z,6.73
2019-03-01T05:53:21.015Z,5.97
2019-03-01T05:55:50.637Z,9.00
2019-03-01T05:58:35.191Z,8.97
2019-03-01T06:01:27.282Z,9.00
2019-03-01T06:04:04.412Z,6.80
2019-03-01T06:07:04.452Z,6.77
2019-03-01T06:09:53.513Z,14.57
2019-03-01T06:12:45.825Z,14.17
2019-03-01T06:15:44.440Z,11.37
2019-03-01T06:18:35.777Z,7.30
2019-03-01T06:21:15.621Z,12.67
2019-03-01T06:24:13.787Z,7.30
2019-03-01T06:26:53.747Z,8.73
2019-03-01T06:29:36.319Z,9.53
2019-03-01T06:32:18.936Z,9.37
2019-03-01T06:35:01.804Z,13.53
2019-03-01T06:38:12.597Z,18.17
2019-03-01T06:40:56.821Z,16.13
2019-03-01T06:43:48.343Z,16.63
2019-03-01T06:46:25.012Z,13.73
2019-03-01T06:48:58.872Z,17.57
2019-03-01T06:51:29.434Z,16.40
2019-03-01T06:53:59.035Z,23.30
2019-03-01T06:56:28.795Z,16.47
2019-03-01T06:58:58.554Z,21.57
2019-03-01T07:01:30.236Z,18.37
2019-03-01T07:04:01.481Z,25.30
2019-03-01T07:06:31.104Z,20.20
2019-03-01T07:09:00.764Z,32.33
2019-03-01T07:11:30.382Z,24.40
2019-03-01T07:13:59.967Z,16.13
2019-03-01T07:16:29.582Z,16.70
2019-03-01T07:18:59.207Z,15.60
2019-03-01T07:21:28.819Z,16.13
2019-03-01T07:23:58.481Z,26.20
2019-03-01T07:26:28.119Z,14.07
2019-03-01T07:28:59.314Z,17.13
2019-03-01T07:31:28.922Z,15.93
2019-03-01T07:33:58.575Z,16.03
2019-03-01T07:36:28.200Z,12.80
2019-03-01T07:38:57.821Z,13.43
2019-03-01T07:41:27.447Z,13.63
2019-03-01T07:43:57.114Z,14.73
2019-03-01T07:46:26.731Z,15.20
2019-03-01T07:48:56.370Z,15.23
2019-03-01T07:51:27.023Z,9.93
2019-03-01T07:53:57.390Z,12.10
2019-03-01T07:56:27.015Z,8.37
2019-03-01T07:58:57.564Z,7.03
2019-03-01T08:01:29.165Z,8.73
2019-03-01T08:03:59.401Z,7.37
2019-03-01T08:06:29.165Z,6.23
2019-03-01T08:08:58.832Z,15.23
2019-03-01T08:11:31.371Z,16.37
2019-03-01T08:13:59.774Z,8.60
2019-03-01T08:16:29.370Z,15.77
2019-03-01T08:18:58.996Z,19.50
2019-03-01T08:21:28.594Z,10.27
2019-03-01T08:23:58.217Z,15.93
2019-03-01T08:26:30.710Z,13.50
2019-03-01T08:28:59.837Z,10.40
2019-03-01T08:31:29.537Z,7.73
2019-03-01T08:33:59.130Z,3.53
2019-03-01T08:36:28.747Z,3.03
2019-03-01T08:39:00.986Z,3.63
2019-03-01T08:41:29.700Z,4.93
2019-03-01T08:43:59.300Z,5.20
2019-03-01T08:46:28.916Z,7.00
2019-03-01T08:48:58.507Z,4.60
2019-03-01T08:51:28.199Z,2.20
2019-03-01T08:53:57.861Z,4.47
2019-03-01T08:56:27.488Z,4.00
2019-03-01T08:58:57.153Z,4.17
2019-03-01T09:01:27.341Z,1.20
2019-03-01T09:04:01.488Z,2.83
2019-03-01T09:06:31.080Z,3.67
2019-03-01T09:09:00.882Z,3.20
2019-03-01T09:11:30.685Z,8.20
2019-03-01T09:14:00.378Z,3.13
2019-03-01T09:16:30.035Z,3.27
2019-03-01T09:18:59.680Z,1.90
2019-03-01T09:21:29.303Z,3.70
2019-03-01T09:23:58.952Z,2.03
2019-03-01T09:26:28.547Z,1.90
2019-03-01T09:28:58.145Z,5.33
2019-03-01T09:31:27.764Z,3.77
2019-03-01T09:33:57.457Z,1.43
2019-03-01T09:36:28.708Z,2.63
2019-03-01T09:38:58.298Z,1.57
2019-03-01T09:41:27.924Z,1.97
2019-03-01T09:43:59.599Z,2.03
2019-03-01T09:46:28.857Z,5.90
2019-03-01T09:48:58.459Z,2.33
2019-03-01T09:51:28.092Z,2.63
2019-03-01T09:53:57.683Z,4.50
2019-03-01T09:56:27.278Z,3.87
2019-03-01T09:58:56.975Z,8.07
2019-03-01T10:01:26.603Z,3.73
2019-03-01T10:03:56.444Z,3.53
2019-03-01T10:06:26.098Z,2.87
2019-03-01T10:08:55.784Z,2.53
2019-03-01T10:11:25.384Z,1.10
2019-03-01T10:13:55.072Z,1.97
2019-03-01T10:16:24.767Z,1.23
2019-03-01T10:18:54.392Z,2.10
2019-03-01T10:21:25.363Z,1.30
2019-03-01T10:23:55.026Z,1.40
2019-03-01T10:26:24.625Z,2.33
2019-03-01T10:29:03.014Z,2.38
2019-03-01T10:31:32.608Z,1.40
2019-03-01T10:34:02.226Z,2.93
2019-03-01T10:36:31.819Z,5.07
2019-03-01T10:39:01.521Z,3.50
2019-03-01T10:41:31.138Z,2.60
2019-03-01T10:44:00.734Z,1.83
2019-03-01T10:46:30.352Z,3.30
2019-03-01T10:48:59.948Z,1.87
2019-03-01T10:51:29.568Z,6.07
2019-03-01T10:53:59.160Z,4.20
2019-03-01T10:56:28.787Z,2.43
2019-03-01T10:58:58.548Z,5.23
2019-03-01T11:01:28.167Z,5.00
2019-03-01T11:03:57.861Z,4.93
2019-03-01T11:06:27.658Z,5.03
2019-03-01T11:08:57.278Z,3.53
2019-03-01T11:11:26.948Z,3.67
2019-03-01T11:13:56.555Z,2.43
2019-03-01T11:16:26.191Z,2.87
2019-03-01T11:18:55.785Z,5.03
2019-03-01T11:21:25.456Z,1.33
2019-03-01T11:23:55.075Z,2.10
2019-03-01T11:26:24.698Z,4.27
2019-03-01T11:28:54.293Z,2.43
2019-03-01T11:31:23.886Z,2.03
2019-03-01T11:33:53.520Z,1.80
2019-03-01T11:36:23.187Z,3.30
2019-03-01T11:38:52.805Z,2.23
2019-03-01T11:41:22.440Z,6.40
2019-03-01T11:43:52.028Z,2.03
2019-03-01T11:46:21.694Z,2.00
2019-03-01T11:48:51.310Z,1.80
2019-03-01T11:51:20.927Z,7.17
2019-03-01T11:53:50.628Z,4.30
2019-03-01T11:56:20.287Z,6.50
2019-03-01T11:58:49.906Z,4.23
2019-03-01T12:01:19.492Z,4.90
2019-03-01T12:03:49.104Z,7.07
2019-03-01T12:06:18.698Z,5.10
2019-03-01T12:08:48.399Z,4.80
2019-03-01T12:11:18.162Z,9.77
2019-03-01T12:13:47.819Z,8.07
2019-03-01T12:16:17.516Z,4.40
2019-03-01T12:18:47.111Z,5.93
2019-03-01T12:21:16.774Z,6.57
2019-03-01T12:23:46.328Z,3.67
2019-03-01T12:26:15.946Z,4.60
2019-03-01T12:28:45.544Z,6.73
2019-03-01T12:31:15.173Z,7.80
2019-03-01T12:33:44.763Z,5.37
2019-03-01T12:36:14.376Z,6.20
2019-03-01T12:38:44.000Z,5.57
2019-03-01T12:41:13.624Z,6.80
2019-03-01T12:43:43.215Z,5.20
2019-03-01T12:46:12.843Z,5.63
2019-03-01T12:48:42.442Z,8.40
2019-03-01T12:51:12.075Z,8.10
2019-03-01T12:53:41.690Z,7.37
2019-03-01T12:56:11.285Z,7.30
2019-03-01T12:58:40.881Z,13.97
2019-03-01T13:01:10.508Z,7.93
2019-03-01T13:03:40.569Z,6.83
2019-03-01T13:06:11.437Z,8.13
2019-03-01T13:08:41.029Z,6.97
2019-03-01T13:11:12.480Z,5.50
2019-03-01T13:13:41.979Z,8.40
2019-03-01T13:16:11.572Z,6.73
2019-03-01T13:18:41.188Z,9.90
2019-03-01T13:21:12.941Z,6.03
2019-03-01T13:23:42.206Z,7.53
2019-03-01T13:26:11.836Z,6.60
2019-03-01T13:28:43.869Z,6.10
2019-03-01T13:31:12.780Z,8.90
2019-03-01T13:33:42.373Z,4.63
2019-03-01T13:36:13.305Z,4.93
2019-03-01T13:38:43.045Z,5.63
2019-03-01T13:41:12.640Z,5.37
2019-03-01T13:43:42.255Z,5.43
2019-03-01T13:46:11.847Z,6.83
2019-03-01T13:48:41.511Z,5.77
2019-03-01T13:51:13.892Z,4.63
2019-03-01T13:53:48.676Z,3.20
2019-03-01T13:56:13.894Z,6.27
2019-03-01T13:58:43.482Z,4.23
2019-03-01T14:01:13.080Z,1.43
2019-03-01T14:03:42.971Z,1.07
2019-03-01T14:06:12.567Z,2.60
2019-03-01T14:08:42.190Z,3.80
2019-03-01T14:11:15.322Z,1.93
2019-03-01T14:13:43.159Z,3.50
2019-03-01T14:16:12.747Z,2.90
2019-03-01T14:18:42.498Z,2.87
2019-03-01T14:21:12.099Z,4.37
2019-03-01T14:23:41.717Z,5.07
2019-03-01T14:26:11.363Z,0.80
2019-03-01T14:28:41.347Z,3.07
2019-03-01T14:31:12.308Z,5.57
2019-03-01T14:33:41.923Z,2.97
2019-03-01T14:36:11.514Z,7.33
2019-03-01T14:38:41.302Z,11.50
2019-03-01T14:41:10.992Z,5.97
2019-03-01T14:43:40.618Z,5.73
2019-03-01T14:46:10.220Z,3.40
2019-03-01T14:48:43.005Z,6.73
2019-03-01T14:51:11.847Z,6.53
2019-03-01T14:53:41.596Z,5.23
2019-03-01T14:56:19.131Z,10.17
2019-03-01T14:59:14.630Z,8.47
2019-03-01T15:02:04.215Z,5.00
2019-03-01T15:04:33.901Z,4.53
2019-03-01T15:07:03.489Z,6.03
2019-03-01T15:09:33.115Z,5.50
2019-03-01T15:12:02.711Z,7.43
2019-03-01T15:14:32.402Z,4.17
2019-03-01T15:17:02.033Z,6.00
2019-03-01T15:19:31.627Z,6.40
2019-03-01T15:22:01.243Z,2.30
2019-03-01T15:24:33.256Z,3.93
2019-03-01T15:27:04.054Z,5.30
2019-03-01T15:29:33.550Z,2.90
2019-03-01T15:32:03.194Z,1.00
2019-03-01T15:34:32.783Z,0.87
2019-03-01T15:37:02.378Z,1.00
2019-03-01T15:39:32.001Z,5.57
2019-03-01T15:42:01.596Z,2.97
2019-03-01T15:44:31.242Z,0.77
2019-03-01T15:47:00.830Z,2.70
2019-03-01T15:49:30.424Z,1.13
2019-03-01T15:52:00.044Z,0.70
2019-03-01T15:54:32.511Z,1.77
2019-03-01T15:57:01.022Z,1.20
2019-03-01T15:59:30.611Z,0.63
2019-03-01T16:02:00.279Z,1.30
2019-03-01T16:04:30.416Z,2.97
2019-03-01T16:07:01.317Z,2.20
2019-03-01T16:09:30.912Z,1.37
2019-03-01T16:12:00.538Z,2.63
2019-03-01T16:14:30.127Z,2.63
2019-03-01T16:16:59.786Z,0.70
2019-03-01T16:19:29.386Z,0.53
2019-03-01T16:21:58.984Z,0.50
2019-03-01T16:24:28.610Z,0.70
2019-03-01T16:26:58.209Z,0.50
2019-03-01T16:29:27.820Z,1.17
2019-03-01T16:31:57.422Z,5.33
2019-03-01T16:34:27.066Z,1.93
2019-03-01T16:36:57.229Z,2.20
2019-03-01T16:39:26.826Z,4.03
2019-03-01T16:41:56.516Z,6.07
2019-03-01T16:44:26.108Z,5.77
2019-03-01T16:46:55.731Z,3.87
2019-03-01T16:49:27.210Z,26.70
2019-03-01T16:51:56.673Z,4.10
2019-03-01T16:54:26.262Z,4.33
2019-03-01T16:56:55.856Z,3.20
2019-03-01T16:59:25.483Z,3.70
2019-03-01T17:01:55.096Z,5.63
2019-03-01T17:04:27.423Z,3.03
2019-03-01T17:06:56.038Z,7.37
2019-03-01T17:09:25.635Z,8.53
2019-03-01T17:11:55.329Z,9.57
2019-03-01T17:14:24.946Z,5.93
2019-03-01T17:16:56.424Z,8.00
2019-03-01T17:19:27.556Z,6.73
2019-03-01T17:21:57.278Z,8.13
2019-03-01T17:24:26.896Z,7.73
2019-03-01T17:26:56.514Z,7.83
2019-03-01T17:29:26.112Z,12.57
2019-03-01T17:31:58.846Z,17.10
2019-03-01T17:34:29.318Z,26.40
2019-03-01T17:36:58.401Z,30.73
2019-03-01T17:39:28.029Z,28.87
2019-03-01T17:41:57.628Z,24.70
2019-03-01T17:44:27.246Z,22.30
2019-03-01T17:46:56.878Z,24.73
2019-03-01T17:49:26.519Z,22.30
2019-03-01T17:51:56.601Z,30.20
2019-03-01T17:54:27.293Z,32.17
2019-03-01T17:56:57.193Z,33.50
2019-03-01T17:59:27.496Z,33.27
2019-03-01T18:01:57.188Z,38.10
2019-03-01T18:04:26.813Z,32.90
2019-03-01T18:06:56.434Z,27.07
2019-03-01T18:09:26.028Z,20.93
2019-03-01T18:11:55.719Z,22.43
2019-03-01T18:14:25.310Z,20.40
2019-03-01T18:16:57.129Z,21.07
2019-03-01T18:19:26.782Z,26.93
2019-03-01T18:21:57.338Z,33.77
2019-03-01T18:24:26.932Z,16.87
2019-03-01T18:26:56.554Z,19.67
2019-03-01T18:29:26.144Z,17.43
2019-03-01T18:31:55.763Z,13.27
2019-03-01T18:34:25.393Z,22.13
2019-03-01T18:36:54.999Z,31.90
2019-03-01T18:39:24.590Z,66.97
2019-03-01T18:41:54.214Z,69.60
2019-03-01T18:44:25.905Z,50.50
2019-03-01T18:46:55.429Z,33.83
2019-03-01T18:49:25.803Z,33.00
2019-03-01T18:51:55.429Z,39.67
2019-03-01T18:54:25.018Z,24.33
2019-03-01T18:56:54.638Z,19.27
2019-03-01T18:59:25.754Z,24.63
2019-03-01T19:01:55.428Z,19.97
2019-03-01T19:04:29.737Z,18.53
2019-03-01T19:06:56.330Z,19.80
2019-03-01T19:09:25.938Z,23.67
2019-03-01T19:11:57.170Z,24.37
2019-03-01T19:14:26.929Z,17.30
2019-03-01T19:16:56.775Z,12.47
2019-03-01T19:19:29.741Z,18.87
2019-03-01T19:21:57.673Z,29.83
2019-03-01T19:24:27.297Z,24.63
2019-03-01T19:26:56.881Z,26.40
2019-03-01T19:29:26.500Z,20.67
2019-03-01T19:31:56.125Z,16.63
2019-03-01T19:34:25.714Z,19.63
2019-03-01T19:36:55.302Z,20.13
2019-03-01T19:39:24.919Z,19.10
2019-03-01T19:41:57.995Z,21.13
2019-03-01T19:44:28.885Z,14.97
2019-03-01T19:46:57.173Z,21.73
2019-03-01T19:49:26.789Z,23.03
2019-03-01T19:51:56.405Z,10.90
2019-03-01T19:54:26.026Z,10.60
2019-03-01T19:56:57.752Z,10.03
2019-03-01T19:59:26.978Z,18.43
2019-03-01T20:01:56.608Z,13.87
2019-03-01T20:04:26.193Z,18.60
2019-03-01T20:06:55.805Z,19.67
2019-03-01T20:09:25.400Z,34.97
2019-03-01T20:11:55.018Z,16.10
2019-03-01T20:14:24.606Z,20.73
2019-03-01T20:16:54.801Z,19.07
2019-03-01T20:19:25.608Z,25.93
2019-03-01T20:21:55.223Z,23.97
2019-03-01T20:24:24.816Z,20.73
2019-03-01T20:26:54.728Z,20.93
2019-03-01T20:29:25.916Z,18.43
2019-03-01T20:31:55.501Z,19.10
2019-03-01T20:34:25.118Z,18.37
2019-03-01T20:36:54.705Z,19.70
2019-03-01T20:39:24.321Z,15.13
2019-03-01T20:41:53.911Z,20.93
2019-03-01T20:44:23.500Z,14.73
2019-03-01T20:46:53.935Z,11.90
2019-03-01T20:49:23.681Z,13.67
2019-03-01T20:51:53.363Z,16.30
2019-03-01T20:54:25.767Z,12.00
2019-03-01T20:56:54.358Z,16.57
2019-03-01T20:59:23.944Z,17.13
2019-03-01T21:01:53.562Z,15.57
2019-03-01T21:04:23.151Z,12.97
2019-03-01T21:06:52.764Z,9.80
2019-03-01T21:09:22.348Z,9.60
2019-03-01T21:11:51.971Z,11.50
2019-03-01T21:14:23.875Z,14.23
2019-03-01T21:16:52.897Z,7.63
2019-03-01T21:19:22.505Z,9.87
2019-03-01T21:21:52.137Z,9.07
2019-03-01T21:24:22.942Z,11.13
2019-03-01T21:26:53.065Z,10.93
2019-03-01T21:29:22.684Z,14.37
2019-03-01T21:31:52.302Z,10.63
2019-03-01T21:34:21.894Z,15.87
2019-03-01T21:36:51.506Z,10.60
2019-03-01T21:39:24.134Z,6.93
2019-03-01T21:41:52.489Z,8.60
2019-03-01T21:44:22.099Z,6.87
2019-03-01T21:46:51.708Z,8.10
2019-03-01T21:49:21.294Z,7.30
2019-03-01T21:51:51.709Z,14.07
2019-03-01T21:54:22.243Z,9.70
2019-03-01T21:57:14.301Z,9.57
2019-03-01T21:59:23.172Z,7.23
2019-03-01T22:01:53.025Z,10.03
2019-03-01T22:04:22.810Z,8.60
2019-03-01T22:06:55.999Z,8.23
2019-03-01T22:09:24.338Z,5.40
2019-03-01T22:11:54.968Z,8.37
2019-03-01T22:14:24.578Z,5.07
2019-03-01T22:16:54.227Z,5.30
2019-03-01T22:19:23.810Z,6.90
2019-03-01T22:21:54.695Z,6.67
2019-03-01T22:24:26.554Z,5.40
2019-03-01T22:26:56.319Z,5.93
2019-03-01T22:29:25.887Z,4.57
2019-03-01T22:31:55.573Z,7.37
2019-03-01T22:34:27.466Z,5.17
2019-03-01T22:36:56.483Z,6.87
2019-03-01T22:39:26.096Z,5.17
2019-03-01T22:41:55.715Z,6.40
2019-03-01T22:44:25.344Z,5.17
2019-03-01T22:46:57.928Z,6.37
2019-03-01T22:49:28.549Z,6.10
2019-03-01T22:51:57.652Z,5.07
2019-03-01T22:54:27.265Z,5.27
2019-03-01T22:56:56.878Z,5.53
2019-03-01T22:59:26.466Z,6.67
2019-03-01T23:01:56.482Z,7.07
2019-03-01T23:04:26.549Z,5.93
2019-03-01T23:06:57.402Z,6.03
2019-03-01T23:09:27.058Z,7.27
2019-03-01T23:11:56.669Z,4.80
2019-03-01T23:14:27.383Z,10.07
2019-03-01T23:16:57.598Z,8.20
2019-03-01T23:19:27.211Z,5.10
2019-03-01T23:21:56.863Z,4.43
2019-03-01T23:24:26.474Z,7.27
2019-03-01T23:26:56.791Z,5.27
2019-03-01T23:29:27.350Z,4.53
2019-03-01T23:31:57.021Z,2.80
2019-03-01T23:34:26.651Z,4.63
2019-03-01T23:36:56.234Z,5.07
2019-03-01T23:39:25.817Z,5.77
2019-03-01T23:41:55.437Z,7.20
2019-03-01T23:44:25.021Z,6.47
2019-03-01T23:46:54.614Z,6.40
2019-03-01T23:49:24.931Z,13.77
2019-03-01T23:51:54.640Z,6.93
2019-03-01T23:54:24.226Z,6.67
2019-03-01T23:56:53.810Z,2.80
2019-03-01T23:59:23.728Z,3.00
